createdAt,value
2019-02-15T00:04:13.787Z,17.34
2019-02-15T00:09:20.893Z,17.58
2019-02-15T00:14:29.158Z,17.29
2019-02-15T00:19:37.383Z,17.29
2019-02-15T00:24:45.541Z,17.39
2019-02-15T00:29:53.560Z,18.58
2019-02-15T00:35:01.987Z,18.14
2019-02-15T00:40:09.099Z,16.87
2019-02-15T00:45:17.392Z,17.85
2019-02-15T00:50:37.633Z,16.94
2019-02-15T00:55:25.736Z,18.26
2019-02-15T01:00:32.450Z,16.57
2019-02-15T01:05:40.851Z,17.00
2019-02-15T01:10:48.008Z,18.76
2019-02-15T01:15:58.416Z,17.98
2019-02-15T01:20:55.657Z,17.49
2019-02-15T01:26:03.039Z,17.58
2019-02-15T01:31:10.262Z,16.95
2019-02-15T01:36:17.551Z,18.47
2019-02-15T01:41:25.638Z,18.78
2019-02-15T01:46:46.703Z,20.79
2019-02-15T01:51:47.656Z,21.06
2019-02-15T01:56:36.558Z,22.06
2019-02-15T02:01:43.656Z,23.64
2019-02-15T02:06:51.788Z,22.02
2019-02-15T02:12:15.412Z,22.17
2019-02-15T02:17:02.807Z,21.15
2019-02-15T02:22:11.081Z,21.06
2019-02-15T02:27:18.417Z,20.00
2019-02-15T02:37:31.460Z,18.83
2019-02-15T02:47:45.597Z,19.29
2019-02-15T02:53:05.747Z,18.13
2019-02-15T02:57:52.870Z,16.75
2019-02-15T03:03:01.090Z,17.89
2019-02-15T03:08:08.497Z,17.77
2019-02-15T03:13:15.740Z,18.11
2019-02-15T03:18:23.940Z,18.24
2019-02-15T03:23:31.205Z,18.07
2019-02-15T03:33:39.299Z,17.86
2019-02-15T03:38:46.757Z,17.07
2019-02-15T03:43:54.068Z,17.57
2019-02-15T03:49:01.579Z,17.75
2019-02-15T03:54:08.850Z,17.99
2019-02-15T03:59:17.196Z,16.92
2019-02-15T04:04:24.358Z,17.44
2019-02-15T04:09:32.729Z,17.81
2019-02-15T04:14:39.828Z,16.82
2019-02-15T04:19:48.054Z,17.41
2019-02-15T04:24:56.181Z,19.08
2019-02-15T04:30:04.684Z,18.67
2019-02-15T04:35:11.819Z,18.32
2019-02-15T04:40:33.048Z,19.77
2019-02-15T04:45:20.322Z,22.39
2019-02-15T04:50:27.729Z,21.10
2019-02-15T04:55:36.023Z,20.95
2019-02-15T05:00:43.304Z,22.99
2019-02-15T05:05:50.481Z,20.12
2019-02-15T05:10:58.923Z,19.50
2019-02-15T05:16:06.063Z,18.47
2019-02-15T05:21:27.151Z,18.71
2019-02-15T05:26:15.250Z,19.33
2019-02-15T05:31:23.578Z,20.70
2019-02-15T05:36:31.667Z,20.66
2019-02-15T05:41:41.521Z,20.11
2019-02-15T05:46:39.788Z,20.03
2019-02-15T05:51:47.680Z,19.95
2019-02-15T05:56:54.712Z,20.10
2019-02-15T06:02:03.075Z,22.82
2019-02-15T06:07:10.335Z,22.51
2019-02-15T06:17:18.627Z,21.39
2019-02-15T06:22:27.765Z,20.88
2019-02-15T06:27:33.704Z,21.04
2019-02-15T06:37:46.736Z,24.37
2019-02-15T06:53:06.599Z,24.83
2019-02-15T06:58:13.978Z,23.81
2019-02-15T07:03:22.647Z,24.79
2019-02-15T07:13:29.834Z,22.56
2019-02-15T07:23:46.015Z,22.68
2019-02-15T07:28:53.247Z,21.73
2019-02-15T07:34:00.595Z,22.71
2019-02-15T07:39:08.661Z,23.47
2019-02-15T07:49:26.444Z,24.93
2019-02-15T07:54:25.765Z,30.83
2019-02-15T07:59:33.058Z,31.55
2019-02-15T08:09:41.244Z,36.70
2019-02-15T08:14:49.545Z,37.14
2019-02-15T08:24:57.887Z,45.85
2019-02-15T08:35:14.074Z,50.43
2019-02-15T08:45:29.988Z,71.19
2019-02-15T08:50:37.487Z,70.70
2019-02-15T08:55:57.838Z,68.60
2019-02-15T09:00:58.058Z,77.82
2019-02-15T09:05:58.510Z,57.79
2019-02-15T09:21:01.475Z,39.60
2019-02-15T09:25:49.200Z,37.02
2019-02-15T09:30:56.751Z,37.34
2019-02-15T09:41:21.128Z,33.26
2019-02-15T10:01:24.465Z,33.40
2019-02-15T10:31:50.691Z,27.99
2019-02-15T10:47:03.290Z,31.52
2019-02-15T10:57:32.097Z,26.06
2019-02-15T11:07:28.908Z,25.32
2019-02-15T11:12:36.240Z,23.01
2019-02-15T11:17:44.413Z,23.90
2019-02-15T11:22:52.396Z,22.99
2019-02-15T11:33:03.798Z,21.01
2019-02-15T11:38:11.188Z,21.48
2019-02-15T11:43:21.817Z,20.73
2019-02-15T11:48:19.299Z,21.95
2019-02-15T11:53:26.609Z,20.68
2019-02-15T11:54:47.199Z,23.30
2019-02-15T11:59:39.449Z,23.17
2019-02-15T12:09:36.646Z,19.06
2019-02-15T12:14:44.191Z,18.39
2019-02-15T12:35:13.045Z,18.08
2019-02-15T12:45:01.568Z,18.90
2019-02-15T12:55:25.551Z,20.22
2019-02-15T13:00:26.250Z,19.34
2019-02-15T13:05:26.402Z,18.66
2019-02-15T13:15:27.616Z,19.00
2019-02-15T13:30:32.785Z,17.34
2019-02-15T13:40:36.247Z,16.07
2019-02-15T13:45:23.498Z,16.32
2019-02-15T13:50:43.813Z,15.42
2019-02-15T13:55:31.270Z,15.37
2019-02-15T14:05:54.372Z,14.89
2019-02-15T14:10:45.013Z,14.45
2019-02-15T14:15:43.318Z,14.18
2019-02-15T14:20:52.624Z,14.93
2019-02-15T14:36:05.813Z,15.24
2019-02-15T14:41:26.261Z,15.50
2019-02-15T14:46:26.185Z,15.44
2019-02-15T14:51:14.513Z,15.47
2019-02-15T14:56:22.718Z,15.82
2019-02-15T15:01:42.985Z,15.62
2019-02-15T15:06:32.961Z,17.28
2019-02-15T15:11:31.935Z,17.89
2019-02-15T15:16:40.221Z,15.61
2019-02-15T15:22:04.139Z,14.52
2019-02-15T15:26:51.351Z,15.74
2019-02-15T15:31:58.985Z,15.45
2019-02-15T15:37:18.980Z,15.40
2019-02-15T15:42:20.276Z,14.86
2019-02-15T15:47:07.476Z,14.98
2019-02-15T15:52:15.326Z,13.95
2019-02-15T15:57:22.545Z,14.78
2019-02-15T16:02:46.008Z,15.43
2019-02-15T16:17:37.594Z,14.98
2019-02-15T16:27:48.866Z,15.31
2019-02-15T16:38:12.867Z,16.82
2019-02-15T16:43:01.385Z,15.55
2019-02-15T16:58:26.509Z,15.76
2019-02-15T17:03:26.867Z,14.69
2019-02-15T17:08:26.986Z,15.81
2019-02-15T17:13:14.366Z,15.96
2019-02-15T17:28:27.410Z,14.96
2019-02-15T17:38:38.517Z,16.81
2019-02-15T17:43:45.925Z,15.26
2019-02-15T17:53:54.207Z,16.35
2019-02-15T17:59:01.392Z,15.78
2019-02-15T18:04:08.791Z,15.64
2019-02-15T18:09:16.608Z,16.43
2019-02-15T18:14:36.617Z,15.59
2019-02-15T18:19:24.928Z,15.23
2019-02-15T18:24:32.136Z,15.21
2019-02-15T18:29:40.394Z,14.64
2019-02-15T18:34:47.612Z,14.61
2019-02-15T18:39:55.759Z,14.75
2019-02-15T18:45:04.158Z,14.58
2019-02-15T18:50:25.319Z,15.00
2019-02-15T18:55:12.695Z,15.57
2019-02-15T19:00:20.823Z,15.12
2019-02-15T19:05:40.972Z,15.06
2019-02-15T19:10:29.283Z,14.47
2019-02-15T19:15:37.646Z,15.56
2019-02-15T19:20:59.026Z,15.64
2019-02-15T19:26:00.486Z,15.42
2019-02-15T19:35:48.815Z,15.59
2019-02-15T19:40:57.350Z,15.15
2019-02-15T19:46:04.773Z,14.39
2019-02-15T19:56:12.939Z,14.14
2019-02-15T20:01:20.339Z,14.25
2019-02-15T20:06:27.939Z,13.64
2019-02-15T20:11:35.178Z,14.06
2019-02-15T20:16:42.654Z,14.31
2019-02-15T20:21:50.855Z,13.86
2019-02-15T20:27:13.816Z,14.27
2019-02-15T20:32:03.165Z,13.48
2019-02-15T20:37:10.525Z,13.74
2019-02-15T20:42:17.772Z,14.27
2019-02-15T20:57:27.040Z,13.78
2019-02-15T21:02:47.029Z,12.83
2019-02-15T21:07:35.357Z,13.34
2019-02-15T21:17:44.422Z,13.31
2019-02-15T21:23:04.472Z,13.22
2019-02-15T21:27:55.858Z,14.17
2019-02-15T21:37:55.179Z,12.89
2019-02-15T21:43:16.077Z,13.46
2019-02-15T21:48:17.661Z,12.99
2019-02-15T21:58:05.799Z,12.71
2019-02-15T22:03:13.987Z,13.56
2019-02-15T22:08:21.442Z,13.52
2019-02-15T22:13:28.630Z,13.60
2019-02-15T22:18:37.043Z,14.02
2019-02-15T22:23:57.002Z,13.54
2019-02-15T22:28:58.544Z,13.51
2019-02-15T22:33:59.603Z,13.93
2019-02-15T22:38:46.984Z,14.13
2019-02-15T22:43:54.188Z,13.76
2019-02-15T22:49:01.492Z,12.87
2019-02-15T22:59:13.664Z,14.53
2019-02-15T23:04:10.729Z,14.46
2019-02-15T23:09:19.257Z,13.67
2019-02-15T23:14:27.445Z,13.00
2019-02-15T23:19:34.810Z,13.63
2019-02-15T23:24:54.847Z,13.71
2019-02-15T23:29:56.315Z,12.82
2019-02-15T23:34:44.433Z,14.19
2019-02-15T23:39:53.010Z,13.67
2019-02-15T23:45:00.122Z,13.49
2019-02-15T23:50:08.409Z,13.49
2019-02-15T23:55:15.577Z,13.24
